Observations

83.1 °F / 28.4 °C
ENE at 14 MPH
78%
75.9°F / 24.4 °C
29.88" (1011 mb)
10 mile(s)
clear
2017.09.23 1020 UTC

Observations

Surface


Raw METARs

2017/09/23 10:20
PKWA 231020Z AUTO 06012KT 10SM CLR 28/24 A2988 RMK AO2 T02840244

Translated METAR

Kwajalein, Bucholz AAF, Kwajalein KMR ATOL Airport, Marshall Islands (PKWA) 08-43N 167-44E 2M
Sep 23, 2017 - 06:20 AM EDT / 2017.09.23 1020 UTC
Wind: from the ENE (060 degrees) at 14 MPH (12 KT):0
Visibility: 10 mile(s):0
Sky conditions: clear
Temperature: 83.1 F (28.4 C)
Dew Point: 75.9 F (24.4 C)
Relative Humidity: 78%
Pressure (altimeter): 29.88 in. Hg (1011 hPa)
ob: PKWA 231020Z AUTO 06012KT 10SM CLR 28/24 A2988 RMK AO2 T02840244
cycle: 10



Upper Air


Latest Skew-T

Skew T Diagram

Latest Data File